MST,Max TemperatureF,Mean TemperatureF,Min TemperatureF,Max Dew PointF,MeanDew PointF,Min DewpointF,Max Humidity, Mean Humidity, Min Humidity, Max Sea Level PressureIn, Mean Sea Level PressureIn, Min Sea Level PressureIn, Max VisibilityMiles, Mean VisibilityMiles, Min VisibilityMiles, Max Wind SpeedMPH, Mean Wind SpeedMPH, Max Gust SpeedMPH,PrecipitationIn, CloudCover, Events, WindDirDegrees
2012-10-1,87,81,75,77,75,73,94,83,70,29.95,29.75,29.68,14,11,8,10,7,,0.00,2,,306
2012-10-2,87,81,75,79,75,73,100,87,70,29.84,29.80,29.75,15,8,0,13,7,,0.00,1,Fog,318
2012-10-3,87,80,73,77,74,70,94,84,66,29.95,29.89,29.84,12,10,8,13,7,,0.00,1,,323
2012-10-4,87,80,73,77,74,72,94,84,66,29.97,29.92,29.86,12,8,0,13,6,,0.00,0,Fog,336
2012-10-5,87,81,75,77,75,72,94,84,66,29.96,29.91,29.84,12,8,4,12,7,,0.00,1,,3
2012-10-6,87,80,73,77,75,73,100,84,66,29.96,29.83,29.75,10,7,1,14,7,,0.00,2,,324
2012-10-7,89,82,75,77,75,73,94,84,66,29.91,29.80,29.74,12,9,0,15,7,,0.00,2,Fog,339
2012-10-8,87,81,75,77,73,70,94,81,62,29.90,29.85,29.78,12,9,6,9,7,,0.00,1,,332
2012-10-9,87,78,69,73,71,68,94,80,58,29.92,29.87,29.82,12,9,6,10,7,,0.00,0,,6
2012-10-10,87,76,66,73,69,64,100,84,58,29.93,29.87,29.78,10,6,0,9,7,,0.00,0,Fog,27
2012-10-11,87,78,68,72,69,66,94,78,51,29.92,29.85,29.64,12,10,6,12,7,,0.00,2,,350
2012-10-12,89,79,69,73,71,68,94,80,55,29.93,29.88,29.82,14,10,6,13,8,,0.00,1,,345
2012-10-13,89,80,71,75,73,70,94,81,59,29.95,29.88,29.78,10,7,2,10,6,,0.00,4,,21
2012-10-14,84,80,75,79,75,73,94,86,74,29.91,29.86,29.80,10,8,6,12,6,,0.00,7,,60
2012-10-15,84,78,73,75,73,72,94,86,70,29.88,29.83,29.78,14,9,5,8,7,,0.00,8,Fog,47
2012-10-16,82,76,71,77,72,68,94,86,70,29.86,29.81,29.76,15,10,1,15,8,,0.00,5,Rain,84
2012-10-17,78,74,71,73,70,68,94,87,74,29.94,29.87,29.84,15,9,1,17,9,,0.55,7,Rain,80
2012-10-18,86,78,69,73,71,68,94,82,66,29.89,29.83,29.74,15,12,10,15,8,,0.00,1,,314
2012-10-19,84,78,71,75,73,70,100,89,70,29.82,29.78,29.72,12,6,0,10,6,,0.00,4,Fog,3
2012-10-20,86,78,71,75,72,70,94,84,62,29.84,29.79,29.73,15,11,7,8,7,,0.00,0,,59
2012-10-21,86,78,71,73,72,70,94,84,66,29.86,29.80,29.75,12,8,3,10,6,,0.00,0,,324
2012-10-22,87,79,71,75,72,70,100,85,62,29.86,29.80,29.76,12,6,0,10,5,,0.00,2,Fog,321
2012-10-23,87,78,69,77,70,66,94,79,58,29.79,29.75,29.68,12,10,8,12,7,,0.00,2,,317
2012-10-24,84,76,69,73,71,68,94,83,66,29.84,29.77,29.72,12,10,8,10,7,,0.00,0,,332
2012-10-25,86,78,69,73,70,66,94,83,66,29.83,29.77,29.73,15,11,8,10,7,,0.00,0,,326
2012-10-26,84,75,66,72,68,64,94,81,55,29.84,29.78,29.73,15,11,8,9,7,,0.00,0,,322
2012-10-27,84,75,66,72,68,64,100,83,62,29.86,29.80,29.75,15,9,0,9,7,,0.00,1,Fog,338
2012-10-28,84,74,64,72,67,64,100,79,58,29.92,29.87,29.83,14,10,1,12,7,,0.00,2,,334
2012-10-29,84,74,64,70,67,63,94,81,62,29.97,29.92,29.86,12,10,6,9,6,,0.00,1,,327
2012-10-30,86,75,64,70,66,63,94,81,55,29.96,29.91,29.83,14,9,3,9,7,,0.00,0,Fog,333
2012-10-31,82,73,64,70,65,63,94,78,54,29.98,29.91,29.84,14,10,3,8,7,,0.00,0,,298